createdAt,value
2018-06-16T00:00:11.651Z,1003.15
2018-06-16T00:00:52.122Z,1003.16
2018-06-16T00:01:32.645Z,1003.14
2018-06-16T00:02:13.128Z,1003.11
2018-06-16T00:02:53.664Z,1003.11
2018-06-16T00:03:34.117Z,1003.12
2018-06-16T00:04:14.673Z,1003.08
2018-06-16T00:04:55.117Z,1003.09
2018-06-16T00:05:35.630Z,1003.12
2018-06-16T00:06:16.142Z,1003.1
2018-06-16T00:06:56.654Z,1003.1
2018-06-16T00:07:37.076Z,1003.11
2018-06-16T00:08:17.691Z,1003.11
2018-06-16T00:08:58.161Z,1003.08
2018-06-16T00:09:38.635Z,1003.1
2018-06-16T00:10:19.228Z,1003.08
2018-06-16T00:10:59.625Z,1003.08
2018-06-16T00:11:40.139Z,1003.09
2018-06-16T00:12:20.620Z,1003.06
2018-06-16T00:13:01.142Z,1003.07
2018-06-16T00:13:41.684Z,1003.07
2018-06-16T00:14:22.185Z,1003.1
2018-06-16T00:15:02.704Z,1003.09
2018-06-16T00:15:43.297Z,1003.1
2018-06-16T00:16:23.716Z,1003.06
2018-06-16T00:17:04.207Z,1003.05
2018-06-16T00:17:44.694Z,1003.08
2018-06-16T00:18:25.239Z,1003.04
2018-06-16T00:19:05.614Z,1003.05
2018-06-16T00:19:46.105Z,1003.04
2018-06-16T00:20:26.605Z,1003.04
2018-06-16T00:21:07.149Z,1003.07
2018-06-16T00:21:47.622Z,1003.02
2018-06-16T00:22:28.186Z,1003.05
2018-06-16T00:23:08.673Z,1003.07
2018-06-16T00:23:49.137Z,1003.01
2018-06-16T00:24:29.657Z,1003.02
2018-06-16T00:25:10.172Z,1003.03
2018-06-16T00:25:50.716Z,1003.02
2018-06-16T00:26:31.247Z,1003.01
2018-06-16T00:27:11.709Z,1003.01
2018-06-16T00:27:52.238Z,1003
2018-06-16T00:28:32.757Z,1002.95
2018-06-16T00:29:13.244Z,1002.98
2018-06-16T00:29:53.729Z,1002.98
2018-06-16T00:30:34.236Z,1003
2018-06-16T00:31:14.706Z,1002.96
2018-06-16T00:31:55.166Z,1002.98
2018-06-16T00:32:35.645Z,1002.94
2018-06-16T00:33:16.149Z,1002.9
2018-06-16T00:33:56.628Z,1002.96
2018-06-16T00:34:37.143Z,1002.93
2018-06-16T00:35:17.673Z,1002.91
2018-06-16T00:35:58.209Z,1002.94
2018-06-16T00:38:11.516Z,1002.92
2018-06-16T00:38:52.017Z,1002.91
2018-06-16T00:39:32.509Z,1002.96
2018-06-16T00:40:12.999Z,1002.9
2018-06-16T00:40:53.492Z,1002.92
2018-06-16T00:41:33.974Z,1002.91
2018-06-16T00:42:14.501Z,1002.89
2018-06-16T00:42:55.010Z,1002.91
2018-06-16T00:43:35.513Z,1002.89
2018-06-16T00:44:16.002Z,1002.9
2018-06-16T00:44:56.523Z,1002.94
2018-06-16T00:45:37.011Z,1002.92
2018-06-16T00:46:17.508Z,1002.88
2018-06-16T00:46:57.999Z,1002.94
2018-06-16T00:47:38.502Z,1002.93
2018-06-16T00:48:19.028Z,1002.92
2018-06-16T00:48:59.513Z,1002.93
2018-06-16T00:49:40.009Z,1002.95
2018-06-16T00:50:20.505Z,1002.92
2018-06-16T00:51:01.050Z,1002.91
2018-06-16T00:51:41.510Z,1002.95
2018-06-16T00:52:22.029Z,1002.9
2018-06-16T00:53:02.546Z,1002.92
2018-06-16T00:53:43.035Z,1002.9
2018-06-16T00:54:23.508Z,1002.94
2018-06-16T00:55:04.007Z,1002.9
2018-06-16T00:55:44.478Z,1002.85
2018-06-16T00:56:24.984Z,1002.89
2018-06-16T00:57:05.475Z,1002.86
2018-06-16T00:57:45.970Z,1002.86
2018-06-16T00:58:26.452Z,1002.89
2018-06-16T00:59:06.920Z,1002.9
2018-06-16T00:59:47.415Z,1002.9
2018-06-16T01:00:27.983Z,1002.89
2018-06-16T01:01:08.447Z,1002.87
2018-06-16T01:01:48.930Z,1002.86
2018-06-16T01:02:29.435Z,1002.86
2018-06-16T01:03:09.953Z,1002.88
2018-06-16T01:03:50.476Z,1002.87
2018-06-16T01:04:30.977Z,1002.84
2018-06-16T01:05:11.513Z,1002.83
2018-06-16T01:05:51.952Z,1002.83
2018-06-16T01:06:32.510Z,1002.82
2018-06-16T01:07:13.004Z,1002.78
2018-06-16T01:07:53.499Z,1002.77
2018-06-16T01:08:33.995Z,1002.78
2018-06-16T01:09:14.542Z,1002.78
2018-06-16T01:09:55.089Z,1002.79
2018-06-16T01:10:35.537Z,1002.82
2018-06-16T01:11:16.003Z,1002.76
2018-06-16T01:11:56.512Z,1002.82
2018-06-16T01:12:36.997Z,1002.85
2018-06-16T01:13:17.536Z,1002.8
2018-06-16T01:13:58.059Z,1002.83
2018-06-16T01:14:38.551Z,1002.78
2018-06-16T01:15:19.103Z,1002.8
2018-06-16T01:15:59.607Z,1002.82
2018-06-16T01:16:40.105Z,1002.76
2018-06-16T01:17:20.897Z,1002.77
2018-06-16T01:18:01.384Z,1002.77
2018-06-16T01:18:41.880Z,1002.78
2018-06-16T01:19:22.306Z,1002.75
2018-06-16T01:20:02.867Z,1002.78
2018-06-16T01:20:43.349Z,1002.74
2018-06-16T01:21:23.845Z,1002.74
2018-06-16T01:22:04.429Z,1002.76
2018-06-16T01:22:44.831Z,1002.77
2018-06-16T01:23:25.303Z,1002.74
2018-06-16T01:24:05.783Z,1002.81
2018-06-16T01:24:46.399Z,1002.78
2018-06-16T01:25:26.991Z,1002.8
2018-06-16T01:26:07.488Z,1002.78
2018-06-16T01:26:47.996Z,1002.79
2018-06-16T01:27:28.482Z,1002.8
2018-06-16T01:28:09.046Z,1002.84
2018-06-16T01:28:49.516Z,1002.83
2018-06-16T01:29:30.040Z,1002.79
2018-06-16T01:30:10.498Z,1002.78
2018-06-16T01:30:50.963Z,1002.78
2018-06-16T01:31:31.452Z,1002.8
2018-06-16T01:32:12.041Z,1002.8
2018-06-16T01:32:52.442Z,1002.82
2018-06-16T01:33:32.985Z,1002.81
2018-06-16T01:34:13.603Z,1002.81
2018-06-16T01:34:54.064Z,1002.81
2018-06-16T01:35:34.499Z,1002.79
2018-06-16T01:36:15.027Z,1002.8
2018-06-16T01:36:55.509Z,1002.79
2018-06-16T01:37:36.029Z,1002.83
2018-06-16T01:38:16.472Z,1002.79
2018-06-16T01:38:56.970Z,1002.83
2018-06-16T01:39:37.474Z,1002.78
2018-06-16T01:40:17.973Z,1002.78
2018-06-16T01:40:58.487Z,1002.82
2018-06-16T01:41:38.995Z,1002.77
2018-06-16T01:42:19.470Z,1002.77
2018-06-16T01:42:59.994Z,1002.77
2018-06-16T01:43:40.469Z,1002.8
2018-06-16T01:44:20.982Z,1002.8
2018-06-16T01:45:01.472Z,1002.83
2018-06-16T01:45:41.985Z,1002.81
2018-06-16T01:46:22.482Z,1002.81
2018-06-16T01:47:03.002Z,1002.84
2018-06-16T01:47:43.554Z,1002.83
2018-06-16T01:48:24.063Z,1002.73
2018-06-16T01:49:04.581Z,1002.79
2018-06-16T01:49:45.045Z,1002.84
2018-06-16T01:50:25.532Z,1002.85
2018-06-16T01:51:06.110Z,1002.81
2018-06-16T01:51:46.726Z,1002.83
2018-06-16T01:52:27.181Z,1002.82
2018-06-16T01:53:07.681Z,1002.85
2018-06-16T01:53:48.175Z,1002.82
2018-06-16T01:54:28.723Z,1002.87
2018-06-16T01:55:09.272Z,1002.82
2018-06-16T01:55:49.791Z,1002.79
2018-06-16T01:56:30.297Z,1002.86
2018-06-16T01:57:10.905Z,1002.8
2018-06-16T01:57:51.361Z,1002.84
2018-06-16T01:58:31.878Z,1002.79
2018-06-16T01:59:12.382Z,1002.78
2018-06-16T01:59:52.880Z,1002.8
2018-06-16T02:00:33.376Z,1002.79
2018-06-16T02:01:13.885Z,1002.82
2018-06-16T02:01:54.419Z,1002.79
2018-06-16T02:02:34.956Z,1002.79
2018-06-16T02:03:15.445Z,1002.83
2018-06-16T02:03:55.982Z,1002.79
2018-06-16T02:04:36.476Z,1002.84
2018-06-16T02:05:17.010Z,1002.8
2018-06-16T02:05:57.490Z,1002.76
2018-06-16T02:06:38.050Z,1002.78
2018-06-16T02:07:18.488Z,1002.76
2018-06-16T02:07:59.059Z,1002.75
2018-06-16T02:08:39.506Z,1002.73
2018-06-16T02:09:20.055Z,1002.74
2018-06-16T02:10:00.540Z,1002.8
2018-06-16T02:10:41.045Z,1002.76
2018-06-16T02:11:21.552Z,1002.8
2018-06-16T02:12:02.040Z,1002.76
2018-06-16T02:12:42.522Z,1002.77
2018-06-16T02:13:23.013Z,1002.77
2018-06-16T02:14:03.499Z,1002.77
2018-06-16T02:14:43.998Z,1002.81
2018-06-16T02:15:24.590Z,1002.8
2018-06-16T02:16:05.085Z,1002.77
2018-06-16T02:16:45.597Z,1002.8
2018-06-16T02:17:26.250Z,1002.78
2018-06-16T02:18:06.728Z,1002.78
2018-06-16T02:18:47.284Z,1002.73
2018-06-16T02:19:27.835Z,1002.79
2018-06-16T02:20:08.371Z,1002.79
2018-06-16T02:20:48.876Z,1002.77
2018-06-16T02:21:30.027Z,1002.74
2018-06-16T02:22:09.855Z,1002.78
2018-06-16T02:22:50.373Z,1002.76
2018-06-16T02:23:30.861Z,1002.71
2018-06-16T02:24:11.315Z,1002.77
2018-06-16T02:24:51.849Z,1002.77
2018-06-16T02:25:32.318Z,1002.73
2018-06-16T02:26:12.791Z,1002.77
2018-06-16T02:26:53.278Z,1002.75
2018-06-16T02:27:33.806Z,1002.74
2018-06-16T02:28:14.304Z,1002.74
2018-06-16T02:28:54.839Z,1002.73
2018-06-16T02:29:35.304Z,1002.71
2018-06-16T02:30:15.822Z,1002.73
2018-06-16T02:30:56.354Z,1002.7
2018-06-16T02:31:36.817Z,1002.68
2018-06-16T02:32:17.306Z,1002.71
2018-06-16T02:32:57.799Z,1002.69
2018-06-16T02:33:38.332Z,1002.66
2018-06-16T02:34:18.840Z,1002.67
2018-06-16T02:34:59.322Z,1002.68
2018-06-16T02:35:39.844Z,1002.66
2018-06-16T02:36:20.344Z,1002.69
2018-06-16T02:37:00.816Z,1002.69
2018-06-16T02:37:41.349Z,1002.66
2018-06-16T02:38:21.808Z,1002.69
2018-06-16T02:39:02.320Z,1002.66
2018-06-16T02:39:42.831Z,1002.65
2018-06-16T02:40:23.322Z,1002.65
2018-06-16T02:41:03.855Z,1002.63
2018-06-16T02:41:44.327Z,1002.68
2018-06-16T02:42:24.827Z,1002.63
2018-06-16T02:43:05.361Z,1002.67
2018-06-16T02:43:45.880Z,1002.65
2018-06-16T02:44:26.399Z,1002.67
2018-06-16T02:45:06.851Z,1002.68
2018-06-16T02:45:47.383Z,1002.71
2018-06-16T02:46:27.876Z,1002.68
2018-06-16T02:47:08.410Z,1002.64
2018-06-16T02:47:48.884Z,1002.64
2018-06-16T02:48:29.397Z,1002.66
2018-06-16T02:49:09.938Z,1002.66
2018-06-16T02:49:50.429Z,1002.67
2018-06-16T02:50:31.054Z,1002.67
2018-06-16T02:51:11.501Z,1002.67
2018-06-16T02:51:51.958Z,1002.64
2018-06-16T02:52:32.512Z,1002.68
2018-06-16T02:53:12.973Z,1002.66
2018-06-16T02:53:53.441Z,1002.66
2018-06-16T02:54:33.929Z,1002.67
2018-06-16T02:55:14.426Z,1002.65
2018-06-16T02:55:54.925Z,1002.65
2018-06-16T02:56:35.441Z,1002.61
2018-06-16T02:57:15.944Z,1002.63
2018-06-16T02:57:56.433Z,1002.6
2018-06-16T02:58:36.990Z,1002.6
2018-06-16T02:59:17.458Z,1002.62
2018-06-16T02:59:57.962Z,1002.59
2018-06-16T03:00:38.413Z,1002.59
2018-06-16T03:01:18.908Z,1002.61
2018-06-16T03:01:59.434Z,1002.59
2018-06-16T03:02:39.888Z,1002.62
2018-06-16T03:03:20.426Z,1002.6
2018-06-16T03:04:00.879Z,1002.6
2018-06-16T03:04:41.393Z,1002.65
2018-06-16T03:05:21.859Z,1002.66
2018-06-16T03:06:02.340Z,1002.64
2018-06-16T03:06:42.830Z,1002.61
2018-06-16T03:07:23.315Z,1002.67
2018-06-16T03:08:03.782Z,1002.67
2018-06-16T03:08:44.294Z,1002.69
2018-06-16T03:09:24.798Z,1002.69
2018-06-16T03:10:05.300Z,1002.72
2018-06-16T03:10:45.799Z,1002.64
2018-06-16T03:11:26.338Z,1002.66
2018-06-16T03:12:06.860Z,1002.66
2018-06-16T03:12:47.389Z,1002.71
2018-06-16T03:13:27.889Z,1002.7
2018-06-16T03:14:08.404Z,1002.7
2018-06-16T03:14:48.962Z,1002.69
2018-06-16T03:15:29.449Z,1002.68
2018-06-16T03:16:09.921Z,1002.7
2018-06-16T03:16:50.522Z,1002.66
2018-06-16T03:17:30.982Z,1002.76
2018-06-16T03:18:11.483Z,1002.74
2018-06-16T03:18:51.948Z,1002.76
2018-06-16T03:19:32.459Z,1002.74
2018-06-16T03:20:12.936Z,1002.71
2018-06-16T03:20:53.376Z,1002.72
2018-06-16T03:21:33.885Z,1002.77
2018-06-16T03:22:14.368Z,1002.74
2018-06-16T03:22:54.839Z,1002.74
2018-06-16T03:23:35.422Z,1002.75
2018-06-16T03:24:15.862Z,1002.76
2018-06-16T03:24:56.348Z,1002.73
2018-06-16T03:25:36.799Z,1002.68
2018-06-16T03:26:17.278Z,1002.69
2018-06-16T03:26:57.817Z,1002.73
2018-06-16T03:27:38.343Z,1002.7
2018-06-16T03:28:18.795Z,1002.69
2018-06-16T03:28:59.314Z,1002.7
2018-06-16T03:29:39.804Z,1002.69
2018-06-16T03:30:20.299Z,1002.69
2018-06-16T03:31:00.828Z,1002.7
2018-06-16T03:31:41.338Z,1002.65
2018-06-16T03:32:21.889Z,1002.66
2018-06-16T03:33:02.353Z,1002.65
2018-06-16T03:33:42.808Z,1002.7
2018-06-16T03:34:23.343Z,1002.69
2018-06-16T03:35:03.890Z,1002.74
2018-06-16T03:35:44.411Z,1002.67
2018-06-16T03:36:24.936Z,1002.73
2018-06-16T03:37:05.400Z,1002.72
2018-06-16T03:37:45.924Z,1002.74
2018-06-16T03:38:26.401Z,1002.75
2018-06-16T03:39:06.956Z,1002.75
2018-06-16T03:39:47.413Z,1002.75
2018-06-16T03:40:27.948Z,1002.7
2018-06-16T03:41:08.395Z,1002.75
2018-06-16T03:41:48.905Z,1002.73
2018-06-16T03:42:29.393Z,1002.75
2018-06-16T03:43:09.942Z,1002.73
2018-06-16T03:43:50.452Z,1002.72
2018-06-16T03:44:30.932Z,1002.74
2018-06-16T03:45:11.483Z,1002.76
2018-06-16T03:45:52.128Z,1002.75
2018-06-16T03:46:32.679Z,1002.74
2018-06-16T03:47:13.250Z,1002.73
2018-06-16T03:47:53.957Z,1002.79
2018-06-16T03:48:34.403Z,1002.78
2018-06-16T03:49:14.904Z,1002.75
2018-06-16T03:49:55.450Z,1002.77
2018-06-16T03:50:35.875Z,1002.79
2018-06-16T03:51:16.373Z,1002.85
2018-06-16T03:51:56.866Z,1002.81
2018-06-16T03:52:37.349Z,1002.8
2018-06-16T03:53:17.798Z,1002.81
2018-06-16T03:53:58.321Z,1002.8
2018-06-16T03:54:38.784Z,1002.83
2018-06-16T03:55:19.299Z,1002.78
2018-06-16T03:55:59.741Z,1002.82
2018-06-16T03:56:40.249Z,1002.83
2018-06-16T03:57:20.744Z,1002.8
2018-06-16T03:58:01.248Z,1002.8
2018-06-16T03:58:41.748Z,1002.85
2018-06-16T03:59:22.235Z,1002.86
2018-06-16T04:00:02.737Z,1002.83
2018-06-16T04:00:43.252Z,1002.83
2018-06-16T04:01:23.722Z,1002.83
2018-06-16T04:02:04.278Z,1002.86
2018-06-16T04:02:44.756Z,1002.84
2018-06-16T04:03:25.248Z,1002.84
2018-06-16T04:04:05.773Z,1002.88
2018-06-16T04:04:46.276Z,1002.81
2018-06-16T04:05:26.745Z,1002.84
2018-06-16T04:06:07.273Z,1002.87
2018-06-16T04:06:48.517Z,1002.88
2018-06-16T04:07:29.032Z,1002.9
2018-06-16T04:08:09.603Z,1002.9
2018-06-16T04:08:50.030Z,1002.86
2018-06-16T04:09:30.554Z,1002.85
2018-06-16T04:10:11.031Z,1002.91
2018-06-16T04:10:51.538Z,1002.91
2018-06-16T04:11:32.056Z,1002.81
2018-06-16T04:12:12.601Z,1002.82
2018-06-16T04:12:53.122Z,1002.88
2018-06-16T04:13:33.655Z,1002.82
2018-06-16T04:14:14.114Z,1002.82
2018-06-16T04:14:54.741Z,1002.87
2018-06-16T04:15:35.160Z,1002.84
2018-06-16T04:16:15.623Z,1002.81
2018-06-16T04:16:56.149Z,1002.85
2018-06-16T04:17:36.605Z,1002.79
2018-06-16T04:18:17.096Z,1002.82
2018-06-16T04:18:57.648Z,1002.81
2018-06-16T04:19:38.100Z,1002.81
2018-06-16T04:20:18.656Z,1002.79
2018-06-16T04:20:59.120Z,1002.84
2018-06-16T04:21:39.670Z,1002.79
2018-06-16T04:22:20.141Z,1002.85
2018-06-16T04:23:00.635Z,1002.86
2018-06-16T04:23:41.129Z,1002.8
2018-06-16T04:24:21.640Z,1002.86
2018-06-16T04:25:02.123Z,1002.84
2018-06-16T04:25:42.632Z,1002.86
2018-06-16T04:26:23.148Z,1002.84
2018-06-16T04:27:03.641Z,1002.87
2018-06-16T04:27:44.181Z,1002.88
2018-06-16T04:28:24.687Z,1002.84
2018-06-16T04:29:05.186Z,1002.8
2018-06-16T04:29:45.720Z,1002.86
2018-06-16T04:30:26.185Z,1002.81
2018-06-16T04:31:06.782Z,1002.88
2018-06-16T04:31:47.292Z,1002.86
2018-06-16T04:32:27.779Z,1002.86
2018-06-16T04:33:08.352Z,1002.85
2018-06-16T04:33:48.871Z,1002.87
2018-06-16T04:34:29.348Z,1002.85
2018-06-16T04:35:09.897Z,1002.87
2018-06-16T04:35:50.473Z,1002.87
2018-06-16T04:36:30.905Z,1002.9
2018-06-16T04:37:11.460Z,1002.91
2018-06-16T04:37:51.945Z,1002.91
2018-06-16T04:38:32.446Z,1002.88
2018-06-16T04:39:12.957Z,1002.93
2018-06-16T04:39:53.458Z,1002.95
2018-06-16T04:40:33.963Z,1002.94
2018-06-16T04:41:14.434Z,1002.93
2018-06-16T04:41:54.933Z,1002.95
2018-06-16T04:42:35.452Z,1002.95
2018-06-16T04:43:15.971Z,1002.94
2018-06-16T04:43:56.485Z,1002.95
2018-06-16T04:44:37.005Z,1002.93
2018-06-16T04:45:17.500Z,1002.96
2018-06-16T04:45:57.994Z,1002.94
2018-06-16T04:46:38.529Z,1002.89
2018-06-16T04:47:19.018Z,1002.91
2018-06-16T04:47:59.526Z,1002.94
2018-06-16T04:48:40.045Z,1002.96
2018-06-16T04:49:20.538Z,1002.94
2018-06-16T04:50:01.051Z,1002.93
2018-06-16T04:50:41.554Z,1002.96
2018-06-16T04:52:39.729Z,1002.95
2018-06-16T04:53:20.233Z,1002.97
2018-06-16T04:54:00.739Z,1002.97
2018-06-16T04:54:41.259Z,1002.94
2018-06-16T04:55:21.751Z,1003.01
2018-06-16T04:56:02.265Z,1003.03
2018-06-16T04:56:42.772Z,1003.06
2018-06-16T04:57:23.342Z,1003.02
2018-06-16T04:58:03.835Z,1003.05
2018-06-16T04:58:44.312Z,1003.09
2018-06-16T04:59:24.805Z,1003.08
2018-06-16T05:00:05.367Z,1003.1
2018-06-16T05:00:45.852Z,1003.06
2018-06-16T05:01:26.263Z,1003.11
2018-06-16T05:02:06.763Z,1003.09
2018-06-16T05:02:47.255Z,1003.09
2018-06-16T05:03:27.728Z,1003.03
2018-06-16T05:04:08.203Z,1003.02
2018-06-16T05:04:48.693Z,1003.02
2018-06-16T05:05:29.203Z,1003.08
2018-06-16T05:06:09.635Z,1003.01
2018-06-16T05:06:50.153Z,1003.01
2018-06-16T05:07:30.633Z,1003.01
2018-06-16T05:08:11.266Z,1003.03
2018-06-16T05:08:51.688Z,1003.01
2018-06-16T05:09:32.124Z,1003.01
2018-06-16T05:10:12.627Z,1003
2018-06-16T05:10:53.100Z,1003.02
2018-06-16T05:11:33.574Z,1002.98
2018-06-16T05:12:14.075Z,1003.01
2018-06-16T05:12:54.579Z,1002.98
2018-06-16T05:13:35.078Z,1002.99
2018-06-16T05:14:15.568Z,1002.96
2018-06-16T05:14:56.077Z,1002.98
2018-06-16T05:15:36.528Z,1002.99
2018-06-16T05:16:17.037Z,1002.99
2018-06-16T05:16:57.610Z,1002.96
2018-06-16T05:17:38.068Z,1002.96
2018-06-16T05:18:18.570Z,1003.02
2018-06-16T05:18:59.032Z,1002.99
2018-06-16T05:19:39.536Z,1003
2018-06-16T05:20:20.025Z,1002.99
2018-06-16T05:21:00.518Z,1002.97
2018-06-16T05:21:40.999Z,1002.97
2018-06-16T05:22:21.661Z,1002.94
2018-06-16T05:23:02.314Z,1002.96
2018-06-16T05:23:42.851Z,1002.92
2018-06-16T05:24:23.337Z,1002.94
2018-06-16T05:25:03.773Z,1002.95
2018-06-16T05:25:44.344Z,1002.92
2018-06-16T05:26:24.734Z,1002.91
2018-06-16T05:27:05.204Z,1002.95
2018-06-16T05:27:45.713Z,1002.92
2018-06-16T05:28:26.218Z,1002.91
2018-06-16T05:29:06.731Z,1002.94
2018-06-16T05:29:47.215Z,1002.91
2018-06-16T05:30:27.857Z,1002.93
2018-06-16T05:31:08.276Z,1002.92
2018-06-16T05:31:48.826Z,1002.92
2018-06-16T05:32:29.301Z,1002.97
2018-06-16T05:33:09.823Z,1002.92
2018-06-16T05:33:50.331Z,1002.92
2018-06-16T05:34:30.824Z,1002.92
2018-06-16T05:35:11.340Z,1002.96
2018-06-16T05:35:51.841Z,1002.93
2018-06-16T05:36:32.340Z,1002.88
2018-06-16T05:37:12.759Z,1002.91
2018-06-16T05:37:53.239Z,1002.92
2018-06-16T05:38:33.752Z,1002.94
2018-06-16T05:39:14.267Z,1002.92
2018-06-16T05:39:54.751Z,1002.89
2018-06-16T05:40:35.231Z,1002.88
2018-06-16T05:41:15.714Z,1002.88
2018-06-16T05:41:56.207Z,1002.91
2018-06-16T05:42:36.711Z,1002.93
2018-06-16T05:43:17.501Z,1002.87
2018-06-16T05:43:57.953Z,1002.88
2018-06-16T05:44:38.463Z,1002.92
2018-06-16T05:45:18.943Z,1002.93
2018-06-16T05:45:59.562Z,1002.91
2018-06-16T05:46:39.950Z,1002.92
2018-06-16T05:47:20.465Z,1002.94
2018-06-16T05:48:00.945Z,1002.96
2018-06-16T05:48:41.457Z,1002.97
2018-06-16T05:49:21.970Z,1003.01
2018-06-16T05:50:02.453Z,1002.94
2018-06-16T05:50:42.962Z,1002.95
2018-06-16T05:51:23.438Z,1002.95
2018-06-16T05:52:03.952Z,1002.99
2018-06-16T05:52:44.429Z,1003
2018-06-16T05:53:24.948Z,1002.98
2018-06-16T05:54:05.555Z,1003
2018-06-16T05:54:45.951Z,1002.98
2018-06-16T05:55:26.478Z,1002.96
2018-06-16T05:56:06.967Z,1002.98
2018-06-16T05:56:47.470Z,1003.01
2018-06-16T05:57:27.907Z,1003.01
2018-06-16T05:58:08.424Z,1003.03
2018-06-16T05:58:49.002Z,1003.03
2018-06-16T05:59:29.409Z,1003.08
2018-06-16T06:00:09.883Z,1003.04
2018-06-16T06:00:50.400Z,1003.09
2018-06-16T06:01:30.863Z,1003.09
2018-06-16T06:02:11.403Z,1003.08
2018-06-16T06:02:51.883Z,1003.1
2018-06-16T06:03:32.368Z,1003.13
2018-06-16T06:04:12.916Z,1003.09
2018-06-16T06:04:53.399Z,1003.12
2018-06-16T06:05:33.881Z,1003.12
2018-06-16T06:06:14.370Z,1003.14
2018-06-16T06:06:54.917Z,1003.15
2018-06-16T06:07:35.386Z,1003.13
2018-06-16T06:08:15.915Z,1003.13
2018-06-16T06:08:56.382Z,1003.12
2018-06-16T06:09:36.915Z,1003.15
2018-06-16T06:10:17.386Z,1003.15
2018-06-16T06:10:57.919Z,1003.14
2018-06-16T06:11:38.399Z,1003.15
2018-06-16T06:12:18.927Z,1003.15
2018-06-16T06:12:59.383Z,1003.16
2018-06-16T06:13:39.857Z,1003.14
2018-06-16T06:14:20.343Z,1003.14
2018-06-16T06:15:00.841Z,1003.15
2018-06-16T06:15:41.389Z,1003.17
2018-06-16T06:16:21.896Z,1003.19
2018-06-16T06:17:02.364Z,1003.22
2018-06-16T06:17:42.883Z,1003.19
2018-06-16T06:18:23.361Z,1003.18
2018-06-16T06:19:03.865Z,1003.22
2018-06-16T06:19:44.376Z,1003.2
2018-06-16T06:20:24.911Z,1003.18
2018-06-16T06:21:05.360Z,1003.25
2018-06-16T06:21:45.863Z,1003.26
2018-06-16T06:22:26.426Z,1003.26
2018-06-16T06:23:06.900Z,1003.25
2018-06-16T06:23:47.394Z,1003.24
2018-06-16T06:24:27.855Z,1003.24
2018-06-16T06:25:08.365Z,1003.27
2018-06-16T06:25:48.888Z,1003.26
2018-06-16T06:26:29.342Z,1003.25
2018-06-16T06:27:09.827Z,1003.29
2018-06-16T06:27:50.380Z,1003.3
2018-06-16T06:28:30.874Z,1003.3
2018-06-16T06:29:11.464Z,1003.29
2018-06-16T06:29:51.891Z,1003.29
2018-06-16T06:30:32.482Z,1003.29
2018-06-16T06:31:12.901Z,1003.28
2018-06-16T06:31:53.601Z,1003.27
2018-06-16T06:32:34.042Z,1003.27
2018-06-16T06:33:15.244Z,1003.31
2018-06-16T06:33:55.086Z,1003.31
2018-06-16T06:34:35.685Z,1003.34
2018-06-16T06:35:16.124Z,1003.34
2018-06-16T06:35:56.662Z,1003.39
2018-06-16T06:36:37.165Z,1003.37
2018-06-16T06:37:17.672Z,1003.34
2018-06-16T06:37:58.175Z,1003.34
2018-06-16T06:38:38.695Z,1003.39
2018-06-16T06:39:19.163Z,1003.39
2018-06-16T06:39:59.720Z,1003.4
2018-06-16T06:40:40.405Z,1003.4
2018-06-16T06:41:20.856Z,1003.44
2018-06-16T06:42:01.440Z,1003.44
2018-06-16T06:42:41.911Z,1003.43
2018-06-16T06:43:22.578Z,1003.45
2018-06-16T06:44:03.159Z,1003.43
2018-06-16T06:44:43.602Z,1003.41
2018-06-16T06:45:24.745Z,1003.41
2018-06-16T06:46:04.615Z,1003.43
2018-06-16T06:46:45.254Z,1003.43
2018-06-16T06:47:25.733Z,1003.4
2018-06-16T06:48:06.360Z,1003.42
2018-06-16T06:48:46.890Z,1003.38
2018-06-16T06:49:27.411Z,1003.43
2018-06-16T06:50:07.932Z,1003.4
2018-06-16T06:50:48.389Z,1003.43
2018-06-16T06:51:28.921Z,1003.41
2018-06-16T06:52:09.432Z,1003.38
2018-06-16T06:52:50.512Z,1003.42
2018-06-16T06:53:30.874Z,1003.41
2018-06-16T06:54:11.440Z,1003.4
2018-06-16T06:54:51.875Z,1003.41
2018-06-16T06:55:32.514Z,1003.36
2018-06-16T06:56:12.914Z,1003.41
2018-06-16T06:56:53.919Z,1003.39
2018-06-16T06:57:34.418Z,1003.39
2018-06-16T06:58:15.382Z,1003.4
2018-06-16T06:58:55.934Z,1003.35
2018-06-16T06:59:36.431Z,1003.37
2018-06-16T07:00:16.924Z,1003.38
2018-06-16T07:00:57.623Z,1003.37
2018-06-16T07:01:38.156Z,1003.39
2018-06-16T07:02:18.827Z,1003.38
2018-06-16T07:02:59.318Z,1003.41
2018-06-16T07:03:39.887Z,1003.42
2018-06-16T07:04:20.335Z,1003.42
2018-06-16T07:05:00.898Z,1003.38
2018-06-16T07:05:41.618Z,1003.46
2018-06-16T07:06:22.086Z,1003.43
2018-06-16T07:07:02.867Z,1003.43
2018-06-16T07:07:43.390Z,1003.45
2018-06-16T07:08:24.013Z,1003.42
2018-06-16T07:09:04.512Z,1003.45
2018-06-16T07:09:44.976Z,1003.46
2018-06-16T07:10:25.455Z,1003.47
2018-06-16T07:11:05.997Z,1003.44
2018-06-16T07:11:47.601Z,1003.46
2018-06-16T07:12:28.132Z,1003.45
2018-06-16T07:13:08.678Z,1003.46
2018-06-16T07:13:49.151Z,1003.47
2018-06-16T07:14:29.697Z,1003.46
2018-06-16T07:15:10.161Z,1003.49
2018-06-16T07:15:50.645Z,1003.49
2018-06-16T07:16:31.169Z,1003.52
2018-06-16T07:17:11.672Z,1003.51
2018-06-16T07:17:52.170Z,1003.5
2018-06-16T07:18:32.794Z,1003.53
2018-06-16T07:19:13.337Z,1003.49
2018-06-16T07:19:53.858Z,1003.53
2018-06-16T07:20:34.424Z,1003.51
2018-06-16T07:21:14.851Z,1003.51
2018-06-16T07:21:55.360Z,1003.45
2018-06-16T07:22:35.910Z,1003.49
2018-06-16T07:23:16.380Z,1003.5
2018-06-16T07:23:56.844Z,1003.49
2018-06-16T07:24:37.361Z,1003.49
2018-06-16T07:25:17.858Z,1003.49
2018-06-16T07:25:58.515Z,1003.47
2018-06-16T07:26:38.999Z,1003.5
2018-06-16T07:27:19.514Z,1003.49
2018-06-16T07:27:59.967Z,1003.54
2018-06-16T07:28:40.460Z,1003.56
2018-06-16T07:29:21.001Z,1003.54
2018-06-16T07:30:01.468Z,1003.54
2018-06-16T07:30:41.956Z,1003.55
2018-06-16T07:31:22.457Z,1003.56
2018-06-16T07:32:02.965Z,1003.53
2018-06-16T07:32:43.465Z,1003.54
2018-06-16T07:33:23.979Z,1003.56
2018-06-16T07:34:04.500Z,1003.54
2018-06-16T07:34:45.040Z,1003.52
2018-06-16T07:35:25.557Z,1003.56
2018-06-16T07:36:06.080Z,1003.54
2018-06-16T07:36:46.552Z,1003.55
2018-06-16T07:37:27.085Z,1003.53
2018-06-16T07:38:07.557Z,1003.55
2018-06-16T07:38:48.125Z,1003.54
2018-06-16T07:39:28.581Z,1003.52
2018-06-16T07:40:09.054Z,1003.53
2018-06-16T07:40:49.533Z,1003.57
2018-06-16T07:41:30.181Z,1003.54
2018-06-16T07:42:10.684Z,1003.56
2018-06-16T07:42:51.189Z,1003.6
2018-06-16T07:43:31.632Z,1003.57
2018-06-16T07:44:12.233Z,1003.52
2018-06-16T07:44:52.761Z,1003.55
2018-06-16T07:45:33.301Z,1003.53
2018-06-16T07:46:13.760Z,1003.53
2018-06-16T07:46:54.264Z,1003.55
2018-06-16T07:47:34.746Z,1003.51
2018-06-16T07:48:15.235Z,1003.48
2018-06-16T07:48:55.766Z,1003.54
2018-06-16T07:49:36.249Z,1003.49
2018-06-16T07:50:16.713Z,1003.52
2018-06-16T07:50:57.226Z,1003.54
2018-06-16T07:51:37.748Z,1003.51
2018-06-16T07:52:18.311Z,1003.52
2018-06-16T07:52:58.747Z,1003.51
2018-06-16T07:53:39.261Z,1003.51
2018-06-16T07:54:19.796Z,1003.5
2018-06-16T07:55:00.333Z,1003.53
2018-06-16T07:55:41.147Z,1003.52
2018-06-16T07:56:21.797Z,1003.52
2018-06-16T07:57:02.319Z,1003.57
2018-06-16T07:57:42.845Z,1003.56
2018-06-16T07:58:23.390Z,1003.51
2018-06-16T07:59:03.857Z,1003.52
2018-06-16T07:59:44.370Z,1003.56
2018-06-16T08:00:24.861Z,1003.56
2018-06-16T08:01:05.396Z,1003.51
2018-06-16T08:01:45.842Z,1003.56
2018-06-16T08:02:26.406Z,1003.54
2018-06-16T08:03:06.912Z,1003.55
2018-06-16T08:03:47.436Z,1003.54
2018-06-16T08:04:27.993Z,1003.56
2018-06-16T08:05:08.517Z,1003.53
2018-06-16T08:05:49.018Z,1003.54
2018-06-16T08:06:29.487Z,1003.53
2018-06-16T08:07:09.985Z,1003.57
2018-06-16T08:07:50.479Z,1003.57
2018-06-16T08:08:31.098Z,1003.53
2018-06-16T08:09:11.547Z,1003.59
2018-06-16T08:09:52.010Z,1003.55
2018-06-16T08:10:32.545Z,1003.53
2018-06-16T08:11:13.077Z,1003.54
2018-06-16T08:11:53.623Z,1003.52
2018-06-16T08:12:34.100Z,1003.51
2018-06-16T08:13:14.644Z,1003.5
2018-06-16T08:13:55.175Z,1003.49
2018-06-16T08:14:35.718Z,1003.49